KFFA/FFA METAR and TAF weather

Enter ICAO airport designator
Station Type Date Time Source
KFFA METAR 2021/07/27 21:55 UTC NOAA

KFFA 272155Z AUTO 00000KT 10SM CLR 28/22 A2996 RMK AO2 T02830222


Station Type Date Time Source
KFFA Decoded METAR 2021/07/27 21:55 UTC NOAA

Kill Devil Hills, First Flight Airport, NC, United States (KFFA) 36-01N 075-40W
Jul 27, 2021 - 05:55 PM EDT / 2021.07.27 2155 UTC
Wind: Calm:0
Visibility: 10 mile(s):0
Sky conditions: clear
Temperature: 82.9 F (28.3 C)
Dew Point: 72.0 F (22.2 C)
Relative Humidity: 69%
Pressure (altimeter): 29.96 in. Hg (1014 hPa)
ob: KFFA 272155Z AUTO 00000KT 10SM CLR 28/22 A2996 RMK AO2 T02830222
cycle: 22

Station Type Date Time Source
KFFA TAF UTC NOAA

Error!

Example: see airport list